createdAt,value
2018-12-05T00:04:50.942Z,4.90
2018-12-05T00:09:54.593Z,4.70
2018-12-05T00:14:58.120Z,4.60
2018-12-05T00:20:01.712Z,4.50
2018-12-05T00:25:05.506Z,4.40
2018-12-05T00:35:22.748Z,4.20
2018-12-05T00:40:26.296Z,4.10
2018-12-05T00:45:29.789Z,3.90
2018-12-05T00:50:33.450Z,3.80
2018-12-05T00:55:36.955Z,3.80
2018-12-05T01:00:40.849Z,3.80
2018-12-05T01:05:44.543Z,3.60
2018-12-05T01:10:48.169Z,3.50
2018-12-05T01:15:51.895Z,3.50
2018-12-05T01:20:55.695Z,3.60
2018-12-05T01:25:59.159Z,3.70
2018-12-05T01:31:02.842Z,3.60
2018-12-05T01:36:06.294Z,3.60
2018-12-05T01:41:09.977Z,3.50
2018-12-05T01:46:13.742Z,3.40
2018-12-05T01:51:17.221Z,3.50
2018-12-05T01:56:21.465Z,3.50
2018-12-05T02:01:25.059Z,3.40
2018-12-05T02:06:28.696Z,3.40
2018-12-05T02:11:32.174Z,3.30
2018-12-05T02:16:35.681Z,3.30
2018-12-05T02:21:39.109Z,3.20
2018-12-05T02:26:42.598Z,3.20
2018-12-05T02:31:46.076Z,3.20
2018-12-05T02:36:49.562Z,3.20
2018-12-05T02:41:53.324Z,3.10
2018-12-05T02:46:56.920Z,3.10
2018-12-05T02:52:00.724Z,3.00
2018-12-05T02:57:05.483Z,3.00
2018-12-05T03:02:09.214Z,2.90
2018-12-05T03:07:13.926Z,2.90
2018-12-05T03:12:17.433Z,2.80
2018-12-05T03:17:21.134Z,2.80
2018-12-05T03:22:24.685Z,2.80
2018-12-05T03:27:28.325Z,2.80
2018-12-05T03:32:31.875Z,2.80
2018-12-05T03:37:35.383Z,2.80
2018-12-05T03:42:38.932Z,2.80
2018-12-05T03:47:42.625Z,2.80
2018-12-05T03:52:46.276Z,2.80
2018-12-05T03:57:50.821Z,2.90
2018-12-05T04:02:54.339Z,2.90
2018-12-05T04:07:57.803Z,2.90
2018-12-05T04:13:01.490Z,2.90
2018-12-05T04:18:05.573Z,2.90
2018-12-05T04:23:09.305Z,2.90
2018-12-05T04:28:12.911Z,2.80
2018-12-05T04:33:16.602Z,2.80
2018-12-05T04:38:20.360Z,2.80
2018-12-05T04:43:24.121Z,2.80
2018-12-05T04:48:27.962Z,2.70
2018-12-05T04:53:31.644Z,2.70
2018-12-05T04:58:35.288Z,2.80
2018-12-05T05:03:38.775Z,2.70
2018-12-05T05:08:42.430Z,2.70
2018-12-05T05:13:45.954Z,2.80
2018-12-05T05:18:50.693Z,2.80
2018-12-05T05:23:54.194Z,2.80
2018-12-05T05:28:57.727Z,2.80
2018-12-05T05:34:01.218Z,2.90
2018-12-05T05:39:08.100Z,2.80
2018-12-05T05:44:11.609Z,2.90
2018-12-05T05:49:15.421Z,2.80
2018-12-05T05:54:18.885Z,2.80
2018-12-05T05:59:22.319Z,2.80
2018-12-05T06:04:26.084Z,2.90
2018-12-05T06:09:29.605Z,2.90
2018-12-05T06:14:33.181Z,2.90
2018-12-05T06:19:36.664Z,2.80
2018-12-05T06:24:40.254Z,2.80
2018-12-05T06:29:43.749Z,2.80
2018-12-05T06:34:47.181Z,2.60
2018-12-05T06:39:50.984Z,2.70
2018-12-05T06:44:54.830Z,2.60
2018-12-05T06:49:58.493Z,2.50
2018-12-05T06:55:02.413Z,2.40
2018-12-05T07:00:08.215Z,2.40
2018-12-05T07:05:11.848Z,2.50
2018-12-05T07:10:15.762Z,2.50
2018-12-05T07:15:19.321Z,2.50
2018-12-05T07:20:23.054Z,2.50
2018-12-05T07:25:26.798Z,2.50
2018-12-05T07:30:30.354Z,2.50
2018-12-05T07:35:33.898Z,2.50
2018-12-05T07:40:37.552Z,2.60
2018-12-05T07:45:41.998Z,2.60
2018-12-05T07:50:45.747Z,2.80
2018-12-05T07:55:49.545Z,3.00
2018-12-05T08:00:53.352Z,3.20
2018-12-05T08:05:57.274Z,3.40
2018-12-05T08:11:01.200Z,3.30
2018-12-05T08:16:05.026Z,3.20
2018-12-05T08:21:08.549Z,3.20
2018-12-05T08:26:12.040Z,3.20
2018-12-05T08:31:15.590Z,3.20
2018-12-05T08:36:19.412Z,3.20
2018-12-05T08:41:22.849Z,3.30
2018-12-05T08:46:26.943Z,3.40
2018-12-05T08:51:30.610Z,3.60
2018-12-05T08:56:34.266Z,3.70
2018-12-05T09:01:38.045Z,3.80
2018-12-05T09:06:41.816Z,3.90
2018-12-05T09:11:45.477Z,4.00
2018-12-05T09:16:48.970Z,4.10
2018-12-05T09:21:52.573Z,4.30
2018-12-05T09:26:56.031Z,4.40
2018-12-05T09:31:59.471Z,4.50
2018-12-05T09:37:02.959Z,4.60
2018-12-05T09:42:07.814Z,4.70
2018-12-05T09:47:15.902Z,4.80
2018-12-05T09:52:17.063Z,4.80
2018-12-05T09:57:20.615Z,4.80
2018-12-05T10:02:24.081Z,4.80
2018-12-05T10:07:27.558Z,4.90
2018-12-05T10:12:31.323Z,4.90
2018-12-05T10:17:34.795Z,5.00
2018-12-05T10:22:38.679Z,5.00
2018-12-05T10:27:42.342Z,5.00
2018-12-05T10:32:45.944Z,5.00
2018-12-05T10:37:49.519Z,4.90
2018-12-05T10:42:53.311Z,5.00
2018-12-05T10:47:58.090Z,5.00
2018-12-05T10:53:01.781Z,5.00
2018-12-05T10:58:05.401Z,5.00
2018-12-05T11:08:42.145Z,5.10
2018-12-05T11:13:51.193Z,5.10
2018-12-05T11:19:00.511Z,5.10
2018-12-05T11:24:11.468Z,5.10
2018-12-05T11:29:15.060Z,5.10
2018-12-05T11:34:18.744Z,5.00
2018-12-05T11:39:23.910Z,5.00
2018-12-05T11:44:27.565Z,5.00
2018-12-05T11:49:31.193Z,5.00
2018-12-05T11:54:34.871Z,5.10
2018-12-05T11:59:38.447Z,5.00
2018-12-05T12:04:42.871Z,5.10
2018-12-05T12:09:46.523Z,5.20
2018-12-05T12:14:50.119Z,5.30
2018-12-05T12:19:53.696Z,5.40
2018-12-05T12:24:57.302Z,5.40
2018-12-05T12:30:00.856Z,5.40
2018-12-05T12:35:04.794Z,5.50
2018-12-05T12:40:08.534Z,5.50
2018-12-05T12:45:12.428Z,5.50
2018-12-05T12:50:16.198Z,5.50
2018-12-05T12:55:19.677Z,5.60
2018-12-05T13:00:23.368Z,5.70
2018-12-05T13:05:27.050Z,5.80
2018-12-05T13:10:30.602Z,5.90
2018-12-05T13:15:34.315Z,5.90
2018-12-05T13:20:38.112Z,5.80
2018-12-05T13:25:41.726Z,5.70
2018-12-05T13:30:45.249Z,5.70
2018-12-05T13:35:48.914Z,5.70
2018-12-05T13:40:52.721Z,5.60
2018-12-05T13:45:56.302Z,5.60
2018-12-05T13:50:59.862Z,5.50
2018-12-05T13:56:03.479Z,5.50
2018-12-05T14:01:08.471Z,5.40
2018-12-05T14:06:13.645Z,5.30
2018-12-05T14:11:17.450Z,5.30
2018-12-05T14:16:21.034Z,5.30
2018-12-05T14:21:24.657Z,5.20
2018-12-05T14:26:28.513Z,5.10
2018-12-05T14:31:32.731Z,5.10
2018-12-05T14:36:37.179Z,5.10
2018-12-05T14:41:41.128Z,5.00
2018-12-05T14:46:44.836Z,4.90
2018-12-05T14:51:48.411Z,4.90
2018-12-05T14:56:51.921Z,4.90
2018-12-05T15:01:55.525Z,4.80
2018-12-05T15:06:59.033Z,4.70
2018-12-05T15:12:02.593Z,4.50
2018-12-05T15:17:06.434Z,4.50
2018-12-05T15:22:10.691Z,4.40
2018-12-05T15:27:14.667Z,4.40
2018-12-05T15:32:18.215Z,4.40
2018-12-05T15:37:21.834Z,4.40
2018-12-05T15:42:25.395Z,4.40
2018-12-05T15:47:28.941Z,4.40
2018-12-05T15:52:32.766Z,4.40
2018-12-05T15:57:37.468Z,4.90
2018-12-05T16:02:41.103Z,5.30
2018-12-05T16:07:44.570Z,5.60
2018-12-05T16:12:48.431Z,5.60
2018-12-05T16:17:52.306Z,5.60
2018-12-05T16:22:55.980Z,5.70
2018-12-05T16:27:59.454Z,5.70
2018-12-05T16:33:03.178Z,5.80
2018-12-05T16:38:06.881Z,5.80
2018-12-05T16:43:10.615Z,6.00
2018-12-05T16:48:14.297Z,6.30
2018-12-05T16:53:17.768Z,6.20
2018-12-05T16:58:23.789Z,6.10
2018-12-05T17:03:27.457Z,6.00
2018-12-05T17:08:31.107Z,5.70
2018-12-05T17:13:39.241Z,5.50
2018-12-05T17:18:43.199Z,5.30
2018-12-05T17:23:47.342Z,5.20
2018-12-05T17:28:51.946Z,5.00
2018-12-05T17:33:55.420Z,5.00
2018-12-05T17:38:58.981Z,4.90
2018-12-05T17:44:02.542Z,4.90
2018-12-05T17:49:06.304Z,4.80
2018-12-05T17:54:14.722Z,4.80
2018-12-05T17:59:15.350Z,4.80
2018-12-05T18:04:19.107Z,4.70
2018-12-05T18:09:22.864Z,4.70
2018-12-05T18:14:26.486Z,4.70
2018-12-05T18:19:29.963Z,4.70
2018-12-05T18:24:33.487Z,4.70
2018-12-05T18:29:37.093Z,4.60
2018-12-05T18:34:40.617Z,4.60
2018-12-05T18:39:44.129Z,4.70
2018-12-05T18:44:47.625Z,4.80
2018-12-05T18:49:51.115Z,4.60
2018-12-05T18:54:54.588Z,4.50
2018-12-05T19:00:01.269Z,4.30
2018-12-05T19:05:04.611Z,4.20
2018-12-05T19:10:08.532Z,4.20
2018-12-05T19:15:12.228Z,4.20
2018-12-05T19:20:15.936Z,4.20
2018-12-05T19:25:19.502Z,4.20
2018-12-05T19:30:23.981Z,4.20
2018-12-05T19:35:27.634Z,4.20
2018-12-05T19:40:31.202Z,4.20
2018-12-05T19:45:34.679Z,4.20
2018-12-05T19:50:38.362Z,4.20
2018-12-05T19:55:41.785Z,4.20
2018-12-05T20:00:45.216Z,4.30
2018-12-05T20:05:48.734Z,4.30
2018-12-05T20:10:52.538Z,4.30
2018-12-05T20:15:56.028Z,4.30
2018-12-05T20:20:59.600Z,4.30
2018-12-05T20:26:03.243Z,4.20
2018-12-05T20:31:06.831Z,4.20
2018-12-05T20:36:10.418Z,4.20
2018-12-05T20:41:14.105Z,4.20
2018-12-05T20:46:17.816Z,4.20
2018-12-05T20:51:21.350Z,4.20
2018-12-05T20:56:24.978Z,4.30
2018-12-05T21:01:28.877Z,4.30
2018-12-05T21:06:33.045Z,4.40
2018-12-05T21:11:36.909Z,4.30
2018-12-05T21:16:40.391Z,4.30
2018-12-05T21:21:43.913Z,4.30
2018-12-05T21:26:47.746Z,4.30
2018-12-05T21:31:51.486Z,4.30
2018-12-05T21:36:55.534Z,4.40
2018-12-05T21:41:59.655Z,4.30
2018-12-05T21:47:03.425Z,4.40
2018-12-05T21:52:07.070Z,4.40
2018-12-05T21:57:10.577Z,4.40
2018-12-05T22:02:14.074Z,4.40
2018-12-05T22:07:17.910Z,4.30
2018-12-05T22:12:21.469Z,4.50
2018-12-05T22:17:24.934Z,4.40
2018-12-05T22:22:28.659Z,4.50
2018-12-05T22:27:32.886Z,4.50
2018-12-05T22:32:37.380Z,4.50
2018-12-05T22:37:40.899Z,4.40
2018-12-05T22:42:44.407Z,4.50
2018-12-05T22:47:49.075Z,4.50
2018-12-05T22:52:52.649Z,4.60
2018-12-05T22:57:58.138Z,4.60
2018-12-05T23:03:02.524Z,4.60
2018-12-05T23:08:06.124Z,4.60
2018-12-05T23:13:09.628Z,4.80
2018-12-05T23:18:13.440Z,4.80
2018-12-05T23:23:16.981Z,4.80
2018-12-05T23:28:20.444Z,4.80
2018-12-05T23:33:23.890Z,4.90
2018-12-05T23:38:27.400Z,4.80
2018-12-05T23:43:31.185Z,4.80
2018-12-05T23:48:34.657Z,4.80
2018-12-05T23:53:38.155Z,4.80
2018-12-05T23:58:41.651Z,4.70
